Time;durP1;ratioP1;P1;durP2;ratioP2;P2;SDS_P1;SDS_P2;PMS_P1;PMS_P2;Temp;Humidity;BMP_temperature;BMP_pressure;BME280_temperature;BME280_humidity;BME280_pressure;Samples;Min_cycle;Max_cycle;Signal;HPM_P1;HPM_P2
2023/04/15 00:00:36;;;;;;;2.95;2.55;;;;;;;9.96;64.53;100437.25;5015729;28;20510;-86
2023/04/15 00:03:02;;;;;;;4.07;2.33;;;;;;;9.97;64.63;100427.75;5033368;28;20033;-86
2023/04/15 00:05:31;;;;;;;4.65;2.63;;;;;;;10.03;63.80;100427.47;5033304;28;20487;-86
2023/04/15 00:07:57;;;;;;;5.57;2.70;;;;;;;9.99;62.62;100398.31;5015340;28;20025;-86
2023/04/15 00:10:23;;;;;;;4.43;2.90;;;;;;;10.13;62.45;100427.81;5015712;28;20083;-85
2023/04/15 00:12:49;;;;;;;3.35;2.28;;;;;;;10.10;62.17;100422.81;5015585;28;20026;-86
2023/04/15 00:15:15;;;;;;;3.58;2.38;;;;;;;10.05;63.67;100423.88;5015469;28;20032;-86
2023/04/15 00:17:40;;;;;;;5.63;3.35;;;;;;;10.12;64.76;100431.31;5031822;28;20461;-86
2023/04/15 00:20:06;;;;;;;6.03;2.55;;;;;;;10.12;63.53;100437.31;5015324;28;20052;-86
2023/04/15 00:22:32;;;;;;;3.78;2.60;;;;;;;10.15;63.11;100438.94;5014849;28;20028;-86
2023/04/15 00:24:57;;;;;;;7.32;3.40;;;;;;;10.18;61.08;100431.00;5031925;28;20037;-86
2023/04/15 00:27:23;;;;;;;0.90;0.60;;;;;;;10.28;58.35;100434.84;5031556;28;20037;-86
2023/04/15 00:29:49;;;;;;;2.15;1.15;;;;;;;10.39;56.85;100440.28;5014460;28;20384;-86
2023/04/15 00:32:14;;;;;;;1.70;1.30;;;;;;;10.40;56.19;100431.63;5014788;28;20052;-86
2023/04/15 00:34:40;;;;;;;1.95;0.88;;;;;;;10.52;54.92;100436.19;5031748;28;20056;-86
2023/04/15 00:37:06;;;;;;;1.95;0.95;;;;;;;10.63;54.21;100441.63;5014505;28;20063;-87
2023/04/15 00:39:31;;;;;;;1.23;1.08;;;;;;;10.70;54.72;100449.88;5015297;28;20036;-86
2023/04/15 00:41:56;;;;;;;1.52;1.30;;;;;;;10.58;53.18;100424.66;5014909;28;20021;-86
2023/04/15 00:44:22;;;;;;;1.75;0.82;;;;;;;10.65;53.63;100420.84;5015125;28;20510;-86
2023/04/15 00:46:49;;;;;;;1.13;1.00;;;;;;;10.77;51.31;100427.13;5014593;28;20077;-86
2023/04/15 00:49:16;;;;;;;3.55;1.45;;;;;;;10.73;51.53;100417.88;5014866;28;20033;-86
2023/04/15 00:51:41;;;;;;;1.08;0.85;;;;;;;10.77;50.25;100394.31;5031878;28;20418;-86
2023/04/15 00:54:07;;;;;;;3.05;1.45;;;;;;;11.11;50.17;100439.97;5031035;28;20025;-86
2023/04/15 00:56:38;;;;;;;3.42;1.10;;;;;;;11.12;50.21;100436.44;5014952;28;20402;-86
2023/04/15 00:59:05;;;;;;;1.15;0.60;;;;;;;10.97;49.37;100416.56;5014875;28;20029;-86
2023/04/15 01:01:30;;;;;;;3.00;1.90;;;;;;;10.99;50.91;100424.22;5031044;28;20025;-86
2023/04/15 01:03:59;;;;;;;0.75;0.40;;;;;;;11.22;50.39;100467.03;5030713;28;20068;-86
2023/04/15 01:06:26;;;;;;;0.35;0.32;;;;;;;11.22;50.61;100467.84;5014348;28;20022;-87
2023/04/15 01:08:51;;;;;;;1.90;0.70;;;;;;;11.18;51.56;100467.16;5014343;28;20029;-86
2023/04/15 01:11:17;;;;;;;0.88;0.82;;;;;;;11.28;51.82;100487.38;5014343;28;20033;-86
2023/04/15 01:13:42;;;;;;;1.90;1.02;;;;;;;11.24;50.94;100483.31;5014296;28;20034;-85
2023/04/15 01:16:08;;;;;;;0.60;0.52;;;;;;;11.08;51.58;100475.50;5014235;28;20021;-86
2023/04/15 01:18:36;;;;;;;4.72;1.60;;;;;;;11.00;51.71;100450.03;5014171;28;20022;-86
2023/04/15 01:21:02;;;;;;;1.88;1.60;;;;;;;11.12;52.05;100464.09;5030072;28;20392;-87
2023/04/15 01:23:28;;;;;;;2.40;1.05;;;;;;;11.12;52.54;100466.69;5014276;28;20120;-86
2023/04/15 01:25:53;;;;;;;1.25;0.60;;;;;;;11.17;53.30;100480.19;5014065;28;20119;-86
2023/04/15 01:28:19;;;;;;;1.15;0.65;;;;;;;11.06;53.73;100462.66;5030382;28;20088;-86
2023/04/15 01:30:44;;;;;;;0.63;0.50;;;;;;;11.11;53.50;100483.09;5013935;28;20438;-87
2023/04/15 01:33:10;;;;;;;2.58;1.55;;;;;;;11.09;53.12;100472.00;5013931;28;20072;-86
2023/04/15 01:35:36;;;;;;;1.00;0.80;;;;;;;11.12;55.44;100492.56;5013184;28;20063;-86
2023/04/15 01:38:06;;;;;;;0.45;0.45;;;;;;;11.14;53.21;100476.03;5013938;28;20026;-86
2023/04/15 01:40:32;;;;;;;2.45;1.27;;;;;;;11.07;52.69;100469.50;5013479;28;20033;-86
2023/04/15 01:42:58;;;;;;;2.95;0.90;;;;;;;11.08;52.92;100478.94;5029668;28;20061;-86
2023/04/15 01:45:23;;;;;;;0.55;0.55;;;;;;;11.05;53.05;100476.53;5014050;28;20037;-86
2023/04/15 01:47:49;;;;;;;1.95;1.42;;;;;;;11.08;53.00;100481.53;5013843;28;20032;-86
2023/04/15 01:50:14;;;;;;;2.95;0.75;;;;;;;11.22;52.45;100492.91;5029412;28;20490;-86
2023/04/15 01:52:40;;;;;;;0.77;0.63;;;;;;;11.30;52.07;100504.50;5029969;28;20072;-85
2023/04/15 01:55:07;;;;;;;1.67;0.85;;;;;;;11.23;52.76;100492.00;5013493;28;20079;-85
2023/04/15 01:57:32;;;;;;;0.47;0.40;;;;;;;11.29;51.99;100500.25;5030039;28;20036;-85
2023/04/15 01:59:58;;;;;;;2.20;0.63;;;;;;;11.12;52.87;100477.03;5013289;28;20026;-85
2023/04/15 02:02:23;;;;;;;0.95;0.63;;;;;;;11.31;53.42;100497.59;5030790;28;20029;-86
2023/04/15 02:04:49;;;;;;;1.38;0.90;;;;;;;11.33;53.74;100500.94;5029511;28;20410;-86
2023/04/15 02:07:14;;;;;;;0.50;0.50;;;;;;;11.25;53.19;100519.47;5029551;28;20507;-85
2023/04/15 02:09:40;;;;;;;0.88;0.55;;;;;;;11.13;54.94;100505.44;5013372;28;20108;-85
2023/04/15 02:12:05;;;;;;;0.98;0.70;;;;;;;11.08;54.86;100511.75;5013643;28;20033;-86
2023/04/15 02:14:31;;;;;;;3.30;1.40;;;;;;;10.76;54.60;100462.53;5013037;28;20033;-85
2023/04/15 02:16:56;;;;;;;1.25;0.80;;;;;;;11.00;54.94;100501.78;5029748;28;20029;-85
2023/04/15 02:19:22;;;;;;;1.27;0.75;;;;;;;11.09;55.84;100523.78;5012761;28;20029;-86
2023/04/15 02:21:47;;;;;;;1.27;0.73;;;;;;;11.06;55.79;100524.78;5013536;28;20459;-86
2023/04/15 02:24:13;;;;;;;0.88;0.80;;;;;;;10.93;55.93;100510.00;5013009;28;20030;-85
2023/04/15 02:26:38;;;;;;;2.08;1.38;;;;;;;10.88;54.55;100530.91;5013231;28;20055;-85
2023/04/15 02:29:04;;;;;;;0.52;0.52;;;;;;;10.69;54.26;100499.13;5012932;28;20025;-85
2023/04/15 02:31:32;;;;;;;0.70;0.55;;;;;;;10.94;54.47;100522.84;5012825;28;20028;-85
2023/04/15 02:33:59;;;;;;;4.90;1.23;;;;;;;10.67;54.16;100488.03;5013156;28;20025;-86
2023/04/15 02:36:25;;;;;;;0.55;0.55;;;;;;;10.98;54.49;100529.53;5029292;28;20063;-85
2023/04/15 02:38:51;;;;;;;0.70;0.63;;;;;;;10.79;54.51;100479.63;5029776;28;20021;-86
2023/04/15 02:41:17;;;;;;;0.55;0.38;;;;;;;11.04;54.53;100518.03;5029479;28;20021;-86
2023/04/15 02:43:43;;;;;;;1.50;0.73;;;;;;;11.05;54.25;100523.13;5029502;28;20044;-86
2023/04/15 02:46:11;;;;;;;1.17;0.63;;;;;;;10.94;54.45;100509.06;5012956;28;20105;-86
2023/04/15 02:48:37;;;;;;;0.55;0.47;;;;;;;11.09;53.85;100516.84;5013125;28;20083;-85
2023/04/15 02:51:15;;;;;;;0.65;0.50;;;;;;;11.20;53.97;100524.88;5029240;28;20033;-85
2023/04/15 02:53:41;;;;;;;0.50;0.50;;;;;;;11.24;53.66;100528.16;5032714;28;20107;-86
2023/04/15 02:56:07;;;;;;;1.00;0.45;;;;;;;11.09;53.85;100514.25;5016909;28;20162;-86
2023/04/15 02:58:33;;;;;;;1.00;0.50;;;;;;;10.98;54.09;100485.53;5016981;28;20513;-85
2023/04/15 03:00:59;;;;;;;0.45;0.45;;;;;;;11.18;54.29;100531.06;5033340;28;20490;-85
2023/04/15 03:03:25;;;;;;;0.40;0.40;;;;;;;11.06;54.27;100516.19;5016735;28;20036;-86
2023/04/15 03:05:51;;;;;;;1.15;0.80;;;;;;;10.99;54.15;100523.41;5033288;28;20037;-86
2023/04/15 03:08:16;;;;;;;5.38;1.15;;;;;;;10.98;54.65;100526.94;5016635;28;20498;-86
2023/04/15 03:10:41;;;;;;;0.75;0.65;;;;;;;10.88;54.40;100516.22;5016134;28;20026;-86
2023/04/15 03:13:07;;;;;;;2.55;0.93;;;;;;;10.97;55.12;100530.44;5032909;28;20030;-86
2023/04/15 03:15:33;;;;;;;1.60;0.90;;;;;;;10.96;55.09;100533.94;5016665;28;20033;-87
2023/04/15 03:17:58;;;;;;;1.23;0.80;;;;;;;10.83;55.08;100531.16;5015963;28;20029;-86
2023/04/15 03:20:23;;;;;;;0.60;0.60;;;;;;;10.80;54.60;100533.06;5034078;28;20026;-86
2023/04/15 03:22:49;;;;;;;1.45;0.80;;;;;;;10.75;54.95;100535.06;5016186;28;20518;-85
2023/04/15 03:27:46;;;;;;;1.48;0.85;;;;;;;10.61;54.88;100513.28;5028955;23;20053;-87
2023/04/15 03:30:12;;;;;;;0.45;0.43;;;;;;;10.75;54.53;100522.13;4996655;28;20030;-86
2023/04/15 03:32:38;;;;;;;1.13;1.00;;;;;;;10.73;54.52;100526.53;4996511;28;20026;-86
2023/04/15 03:35:03;;;;;;;2.03;1.27;;;;;;;10.62;54.44;100507.22;4996619;28;20537;-87
2023/04/15 03:37:29;;;;;;;0.80;0.57;;;;;;;10.78;54.97;100521.94;5014100;28;20414;-87
2023/04/15 03:39:54;;;;;;;1.20;0.90;;;;;;;10.77;56.01;100534.06;5012863;28;20034;-87
2023/04/15 03:42:20;;;;;;;1.58;1.02;;;;;;;10.79;55.95;100541.72;4996155;28;20022;-86
2023/04/15 03:44:45;;;;;;;1.20;1.10;;;;;;;10.71;55.92;100520.59;4996350;28;20479;-87
2023/04/15 03:47:11;;;;;;;5.88;1.30;;;;;;;10.87;56.58;100553.38;4996388;28;20100;-88
2023/04/15 03:49:36;;;;;;;0.70;0.60;;;;;;;10.74;56.42;100562.69;5012624;28;20041;-87
2023/04/15 03:52:02;;;;;;;1.13;0.70;;;;;;;10.55;56.91;100539.47;4980006;28;20049;-86
2023/04/15 03:54:27;;;;;;;2.05;0.93;;;;;;;10.68;56.93;100562.16;5012676;28;20037;-87
2023/04/15 03:56:53;;;;;;;2.22;0.90;;;;;;;10.54;56.60;100553.34;4995911;28;20033;-87
2023/04/15 03:59:18;;;;;;;1.30;0.90;;;;;;;10.50;56.88;100562.13;4996150;28;20029;-88
2023/04/15 04:01:44;;;;;;;1.42;1.20;;;;;;;10.55;56.50;100574.88;4996447;28;20035;-87
2023/04/15 04:04:09;;;;;;;7.10;5.20;;;;;;;10.50;56.95;100567.31;4995123;28;20026;-88
2023/04/15 04:06:35;;;;;;;4.28;2.78;;;;;;;10.58;56.71;100585.88;5012379;28;20033;-87
2023/04/15 04:09:00;;;;;;;0.90;0.80;;;;;;;10.41;56.98;100565.19;4996142;28;20030;-87
2023/04/15 04:11:27;;;;;;;2.85;2.17;;;;;;;10.48;57.01;100578.66;5011863;28;20076;-87
2023/04/15 04:13:52;;;;;;;2.55;1.33;;;;;;;10.48;56.40;100584.66;4995961;28;20061;-86
2023/04/15 04:16:18;;;;;;;5.20;2.03;;;;;;;10.48;56.12;100587.25;4995632;28;20134;-86
2023/04/15 04:18:44;;;;;;;16.38;2.55;;;;;;;10.48;56.85;100589.00;5011844;28;20068;-86
2023/04/15 04:21:09;;;;;;;2.03;1.00;;;;;;;10.30;56.91;100570.03;4995750;28;20025;-87
2023/04/15 04:23:35;;;;;;;1.23;0.90;;;;;;;10.43;58.03;100578.91;4995493;28;20029;-87
2023/04/15 04:26:00;;;;;;;1.67;1.10;;;;;;;10.35;58.98;100581.00;4996065;28;20038;-86
2023/04/15 04:28:26;;;;;;;2.58;1.67;;;;;;;10.29;58.59;100582.13;4995345;28;20077;-86
2023/04/15 04:30:51;;;;;;;1.33;1.10;;;;;;;10.11;58.17;100595.06;4995458;28;20030;-87
2023/04/15 04:33:17;;;;;;;2.88;1.38;;;;;;;9.99;58.50;100591.31;5013281;28;20026;-88
2023/04/15 04:35:42;;;;;;;3.00;1.95;;;;;;;9.95;58.58;100598.41;4995282;28;20030;-86
2023/04/15 04:38:08;;;;;;;2.63;1.58;;;;;;;10.04;57.97;100599.72;4995012;28;20033;-87
2023/04/15 04:40:33;;;;;;;2.22;1.00;;;;;;;10.09;57.95;100600.31;4995248;28;20383;-87
2023/04/15 04:42:59;;;;;;;3.05;1.15;;;;;;;10.06;57.77;100588.38;4995293;28;20038;-86
2023/04/15 04:45:24;;;;;;;1.65;1.02;;;;;;;10.02;57.54;100566.16;4994696;28;20421;-88
2023/04/15 04:47:50;;;;;;;2.03;1.27;;;;;;;10.26;57.66;100599.56;4995161;28;20029;-88
2023/04/15 04:50:15;;;;;;;1.20;0.77;;;;;;;10.40;57.52;100604.88;4995201;28;20026;-87
2023/04/15 04:52:41;;;;;;;0.80;0.65;;;;;;;10.37;57.79;100586.09;4994871;28;20026;-86
2023/04/15 04:55:07;;;;;;;1.55;0.85;;;;;;;10.59;56.97;100613.44;4978853;28;20446;-87
2023/04/15 04:57:34;;;;;;;1.55;0.65;;;;;;;10.72;56.74;100621.44;5011438;28;20659;-87
2023/04/15 05:00:01;;;;;;;1.45;1.35;;;;;;;10.76;56.21;100610.00;4995553;28;20022;-87
2023/04/15 05:02:26;;;;;;;2.85;1.00;;;;;;;10.89;55.90;100610.22;4978909;28;20068;-87
2023/04/15 05:04:53;;;;;;;2.67;1.38;;;;;;;11.05;55.77;100613.72;5010983;28;20029;-87
2023/04/15 05:07:19;;;;;;;1.55;0.65;;;;;;;11.33;54.84;100625.25;4994902;28;20546;-86
2023/04/15 05:09:45;;;;;;;2.22;1.10;;;;;;;11.51;54.85;100628.66;4994921;28;20030;-87
2023/04/15 05:12:13;;;;;;;1.42;1.02;;;;;;;11.63;54.21;100626.22;4994674;28;20068;-86
2023/04/15 05:14:42;;;;;;;2.58;1.13;;;;;;;11.71;54.38;100618.91;5011292;28;20038;-87
2023/04/15 05:17:07;;;;;;;2.25;1.50;;;;;;;11.93;53.04;100631.56;4994945;28;20109;-87
2023/04/15 05:19:33;;;;;;;1.38;0.90;;;;;;;11.95;53.78;100623.69;4994716;28;20026;-87
2023/04/15 05:22:00;;;;;;;0.60;0.60;;;;;;;12.08;55.31;100635.06;4994148;28;20050;-87
2023/04/15 05:24:26;;;;;;;0.50;0.50;;;;;;;12.08;54.36;100619.50;4994419;28;20033;-87
2023/04/15 05:26:51;;;;;;;3.15;1.00;;;;;;;12.13;54.33;100640.00;5011019;28;20133;-87
2023/04/15 05:29:17;;;;;;;2.55;0.93;;;;;;;11.93;54.30;100599.59;4994291;28;20050;-87
2023/04/15 05:31:43;;;;;;;0.43;0.43;;;;;;;12.02;54.09;100619.84;5010666;28;20049;-86
2023/04/15 05:34:09;;;;;;;1.13;0.77;;;;;;;12.06;53.21;100629.13;4994617;28;20490;-87
2023/04/15 05:36:34;;;;;;;1.70;0.70;;;;;;;12.09;53.23;100631.53;4978143;28;20026;-87
2023/04/15 05:39:00;;;;;;;0.90;0.50;;;;;;;12.12;53.38;100636.56;4994385;28;20033;-87
2023/04/15 05:41:25;;;;;;;0.57;0.57;;;;;;;12.16;52.71;100635.47;5010863;28;20041;-87
2023/04/15 05:43:51;;;;;;;1.30;0.70;;;;;;;12.31;52.31;100647.59;4977965;28;20022;-87
2023/04/15 05:46:16;;;;;;;0.93;0.77;;;;;;;12.31;52.83;100624.25;4993881;28;20037;-87
2023/04/15 05:48:42;;;;;;;0.90;0.70;;;;;;;12.41;53.99;100641.91;4994452;28;20115;-87
2023/04/15 05:51:07;;;;;;;1.00;0.70;;;;;;;12.55;53.84;100655.75;5009973;28;20129;-87
2023/04/15 05:53:32;;;;;;;1.25;0.50;;;;;;;12.55;53.95;100645.38;4994083;28;20038;-87
2023/04/15 05:55:58;;;;;;;0.98;0.80;;;;;;;12.79;53.98;100656.13;5010448;28;20479;-88
2023/04/15 05:58:23;;;;;;;1.48;0.95;;;;;;;12.78;52.51;100641.50;4994238;28;20052;-88
2023/04/15 06:00:49;;;;;;;0.98;0.70;;;;;;;12.96;52.66;100651.72;5009973;28;20422;-87
2023/04/15 06:03:15;;;;;;;0.95;0.88;;;;;;;12.96;52.96;100633.53;4993568;28;20034;-87
2023/04/15 06:05:40;;;;;;;1.40;1.08;;;;;;;13.11;50.77;100638.66;4993618;28;20104;-86
2023/04/15 06:08:06;;;;;;;3.40;0.95;;;;;;;13.37;49.31;100663.13;4977177;28;20418;-86
2023/04/15 06:10:35;;;;;;;1.20;0.80;;;;;;;13.46;48.96;100672.94;4977384;28;20093;-87
2023/04/15 06:13:02;;;;;;;1.98;1.30;;;;;;;13.34;49.63;100621.72;5010222;28;20160;-86
2023/04/15 06:15:28;;;;;;;3.28;1.70;;;;;;;13.91;48.92;100681.50;5010047;28;20018;-87
2023/04/15 06:17:53;;;;;;;1.55;0.77;;;;;;;13.95;48.20;100651.75;4993634;28;20036;-87
2023/04/15 06:20:19;;;;;;;0.50;0.50;;;;;;;14.18;48.69;100678.13;4993368;28;20029;-86
2023/04/15 06:22:45;;;;;;;0.75;0.38;;;;;;;14.37;47.62;100663.00;4993885;28;20030;-87
2023/04/15 06:25:10;;;;;;;0.93;0.60;;;;;;;14.42;48.42;100660.09;4977505;28;20037;-87
2023/04/15 06:27:36;;;;;;;1.05;0.68;;;;;;;14.27;47.33;100621.13;4992850;28;20050;-86
2023/04/15 06:30:02;;;;;;;1.30;0.75;;;;;;;14.61;47.23;100666.66;4993352;28;20048;-88
2023/04/15 06:32:27;;;;;;;2.15;1.40;;;;;;;14.60;46.30;100659.78;4993258;28;20446;-88
2023/04/15 06:34:53;;;;;;;0.93;0.68;;;;;;;14.78;46.48;100686.38;4992771;28;20030;-87
2023/04/15 06:37:18;;;;;;;1.42;0.85;;;;;;;14.85;46.72;100694.63;4993302;28;20073;-86
2023/04/15 06:39:44;;;;;;;0.50;0.40;;;;;;;14.57;45.65;100657.38;4993348;28;20479;-86
2023/04/15 06:42:09;;;;;;;0.68;0.57;;;;;;;14.79;45.89;100698.47;5009887;28;20034;-87
2023/04/15 06:44:36;;;;;;;0.60;0.60;;;;;;;14.71;44.61;100694.69;4993713;28;20033;-86
2023/04/15 06:47:01;;;;;;;1.52;0.75;;;;;;;14.71;44.67;100689.47;4993500;28;20076;-87
2023/04/15 06:49:27;;;;;;;0.70;0.60;;;;;;;14.71;44.81;100702.50;4993456;28;20030;-87
2023/04/15 06:51:52;;;;;;;0.40;0.40;;;;;;;14.94;44.54;100691.41;4993277;28;20026;-87
2023/04/15 06:54:18;;;;;;;1.52;0.88;;;;;;;15.08;44.62;100706.13;5009707;28;20029;-87
2023/04/15 06:56:43;;;;;;;2.28;1.00;;;;;;;15.15;45.31;100697.81;4992936;28;20061;-86
2023/04/15 06:59:09;;;;;;;0.70;0.52;;;;;;;14.96;43.99;100692.16;4976950;28;20069;-87
2023/04/15 07:01:34;;;;;;;0.40;0.40;;;;;;;14.93;44.22;100707.97;5009581;28;20403;-87
2023/04/15 07:04:00;;;;;;;0.28;0.28;;;;;;;14.89;43.95;100672.66;4992984;28;20033;-87
2023/04/15 07:06:26;;;;;;;0.65;0.55;;;;;;;15.28;44.18;100708.25;4993212;28;20104;-87
2023/04/15 07:08:52;;;;;;;0.65;0.65;;;;;;;15.43;44.00;100695.94;4993462;28;20049;-86
2023/04/15 07:11:17;;;;;;;0.75;0.32;;;;;;;15.80;44.07;100709.09;4992960;28;20418;-86
2023/04/15 07:13:43;;;;;;;1.95;0.98;;;;;;;15.62;44.26;100646.84;4993127;28;20022;-87
2023/04/15 07:16:08;;;;;;;0.35;0.35;;;;;;;16.06;43.12;100700.28;5010409;28;20538;-87
2023/04/15 07:18:33;;;;;;;1.00;0.88;;;;;;;16.24;42.39;100699.00;4992328;28;20034;-87
2023/04/15 07:20:59;;;;;;;5.07;0.55;;;;;;;16.21;39.84;100698.34;4992945;28;20029;-87
2023/04/15 07:23:25;;;;;;;0.43;0.43;;;;;;;16.33;41.37;100703.56;4993135;28;20491;-86
2023/04/15 07:25:51;;;;;;;0.40;0.40;;;;;;;16.35;41.13;100693.84;5008851;28;20434;-86
2023/04/15 07:28:16;;;;;;;1.90;1.13;;;;;;;16.50;41.01;100704.94;5008750;28;21017;-86
2023/04/15 07:30:42;;;;;;;4.88;0.80;;;;;;;16.57;41.24;100705.34;5008964;28;20387;-86
2023/04/15 07:33:07;;;;;;;2.40;0.52;;;;;;;16.59;40.42;100703.44;4992526;28;20042;-86
2023/04/15 07:35:33;;;;;;;1.20;0.93;;;;;;;16.53;40.12;100703.91;5009243;28;20030;-87
2023/04/15 07:37:58;;;;;;;1.02;0.80;;;;;;;16.68;39.69;100705.41;4992720;28;20026;-86
2023/04/15 07:40:23;;;;;;;0.60;0.60;;;;;;;16.35;39.19;100709.50;4996483;28;20034;-88
2023/04/15 07:42:50;;;;;;;0.55;0.40;;;;;;;16.02;40.46;100699.66;4996364;28;20036;-86
2023/04/15 07:45:15;;;;;;;0.55;0.52;;;;;;;16.09;40.37;100702.69;4996404;28;20022;-86
2023/04/15 07:47:41;;;;;;;0.98;0.73;;;;;;;16.17;40.13;100716.03;4996066;28;20057;-86
2023/04/15 07:50:09;;;;;;;1.10;0.65;;;;;;;16.22;40.63;100711.31;4996386;28;20034;-86
2023/04/15 07:52:38;;;;;;;0.63;0.63;;;;;;;16.30;41.21;100713.38;4996337;28;20112;-86
2023/04/15 07:55:10;;;;;;;2.22;1.15;;;;;;;16.57;40.47;100702.72;4996683;28;20439;-87
2023/04/15 07:57:35;;;;;;;2.30;0.40;;;;;;;16.64;39.84;100710.00;4996595;28;20048;-86
2023/04/15 08:00:02;;;;;;;0.30;0.30;;;;;;;16.67;38.30;100706.31;5012476;28;20486;-87
2023/04/15 08:02:28;;;;;;;0.77;0.77;;;;;;;16.65;39.29;100718.69;4995811;28;20477;-86
2023/04/15 08:04:53;;;;;;;1.35;0.68;;;;;;;16.65;39.00;100713.44;4996017;28;20029;-87
2023/04/15 08:07:19;;;;;;;1.85;1.20;;;;;;;16.66;40.09;100691.59;4995709;28;20026;-86
2023/04/15 08:09:45;;;;;;;0.65;0.52;;;;;;;16.92;39.65;100706.25;5012296;28;20089;-86
2023/04/15 08:12:12;;;;;;;0.40;0.40;;;;;;;17.15;39.20;100701.06;5012196;28;20029;-86
2023/04/15 08:14:38;;;;;;;0.30;0.30;;;;;;;17.31;39.34;100704.19;5012182;28;20037;-87
2023/04/15 08:17:04;;;;;;;2.78;0.70;;;;;;;17.37;37.70;100695.03;5011555;28;20022;-87
2023/04/15 08:19:29;;;;;;;0.85;0.63;;;;;;;17.72;38.47;100715.91;5011702;28;20064;-86
2023/04/15 08:21:55;;;;;;;1.55;0.75;;;;;;;17.61;37.61;100718.50;4995730;28;20030;-86
2023/04/15 08:24:21;;;;;;;1.05;0.57;;;;;;;17.47;39.25;100701.22;5011953;28;20064;-86
2023/04/15 08:26:46;;;;;;;0.82;0.30;;;;;;;17.30;39.02;100705.13;4995466;28;20426;-87
2023/04/15 08:29:12;;;;;;;1.00;0.57;;;;;;;16.94;39.21;100693.06;4995399;28;20069;-86
2023/04/15 08:31:38;;;;;;;1.77;0.50;;;;;;;17.05;39.55;100700.09;4995170;28;20030;-86
2023/04/15 08:34:03;;;;;;;0.77;0.50;;;;;;;16.97;38.88;100707.66;4995394;28;20045;-86
2023/04/15 08:36:29;;;;;;;0.52;0.35;;;;;;;16.97;39.32;100702.44;4995580;28;20030;-86
2023/04/15 08:38:55;;;;;;;0.45;0.45;;;;;;;16.95;38.76;100691.28;4995442;28;20117;-87
2023/04/15 08:41:22;;;;;;;0.93;0.55;;;;;;;17.10;38.66;100708.41;5011728;28;20041;-86
2023/04/15 08:43:55;;;;;;;0.57;0.50;;;;;;;17.18;38.02;100692.97;4995316;28;20042;-86
2023/04/15 08:46:20;;;;;;;0.55;0.40;;;;;;;17.65;36.26;100699.00;5011435;28;20025;-86
2023/04/15 08:48:46;;;;;;;0.93;0.55;;;;;;;17.81;35.21;100696.91;4995585;28;20041;-87
2023/04/15 08:51:14;;;;;;;0.88;0.75;;;;;;;18.01;35.42;100669.97;4994660;28;20033;-86
2023/04/15 08:53:41;;;;;;;1.58;0.90;;;;;;;18.01;34.09;100669.97;4995485;28;20061;-87
2023/04/15 08:56:07;;;;;;;5.05;0.60;;;;;;;18.20;34.48;100677.22;4995330;28;20065;-86
2023/04/15 08:58:33;;;;;;;0.60;0.50;;;;;;;18.38;34.61;100674.88;4978807;28;20553;-87
2023/04/15 09:00:58;;;;;;;3.83;0.60;;;;;;;18.46;34.25;100672.47;5010864;28;20065;-86
2023/04/15 09:03:24;;;;;;;1.83;0.80;;;;;;;18.59;33.59;100681.00;4994973;28;20475;-87
2023/04/15 09:05:50;;;;;;;0.65;0.38;;;;;;;18.72;34.07;100680.03;4994973;28;20030;-86
2023/04/15 09:08:15;;;;;;;1.15;0.50;;;;;;;19.00;33.86;100689.91;4994797;28;20018;-87
2023/04/15 09:10:41;;;;;;;0.60;0.50;;;;;;;19.22;33.44;100675.81;4994632;28;20041;-86
2023/04/15 09:13:06;;;;;;;1.27;0.75;;;;;;;19.47;34.64;100653.59;4994784;28;20037;-87
2023/04/15 09:15:32;;;;;;;0.40;0.40;;;;;;;19.76;32.15;100665.06;4994397;28;20034;-86
2023/04/15 09:17:58;;;;;;;0.52;0.40;;;;;;;19.66;32.08;100665.97;4994765;28;20030;-86
2023/04/15 09:20:23;;;;;;;0.70;0.60;;;;;;;19.69;30.77;100665.72;5010592;28;20490;-86
2023/04/15 09:22:49;;;;;;;1.42;0.55;;;;;;;19.38;32.09;100670.13;4978247;28;20025;-86
2023/04/15 09:25:15;;;;;;;0.85;0.60;;;;;;;19.18;32.50;100677.88;4994406;28;21479;-86
2023/04/15 09:27:57;;;;;;;3.35;1.30;;;;;;;18.96;33.32;100678.00;5011948;28;20054;-86
2023/04/15 09:30:23;;;;;;;0.50;0.50;;;;;;;18.81;34.63;100690.59;4994567;28;20053;-86
2023/04/15 09:32:56;;;;;;;0.60;0.45;;;;;;;18.50;33.19;100665.22;4994423;28;20041;-86
2023/04/15 09:35:23;;;;;;;0.80;0.60;;;;;;;18.70;33.12;100669.69;4978768;28;20026;-86
2023/04/15 09:37:49;;;;;;;1.92;0.75;;;;;;;18.47;33.49;100676.75;4978098;28;20029;-86
2023/04/15 09:40:14;;;;;;;0.55;0.55;;;;;;;18.40;32.45;100680.84;4994074;28;20030;-86
2023/04/15 09:43:04;;;;;;;1.15;0.50;;;;;;;18.56;33.57;100678.63;4993888;28;20037;-86
2023/04/15 09:45:29;;;;;;;0.95;0.57;;;;;;;18.85;33.29;100664.94;4994477;28;20026;-86
2023/04/15 09:47:56;;;;;;;0.68;0.68;;;;;;;18.97;33.38;100634.25;4994274;28;20033;-86
2023/04/15 09:50:22;;;;;;;0.80;0.50;;;;;;;19.43;31.55;100639.06;4977699;28;20041;-86
2023/04/15 09:52:47;;;;;;;1.13;0.35;;;;;;;19.56;30.46;100649.34;4993823;28;20507;-87
2023/04/15 09:55:13;;;;;;;1.55;0.30;;;;;;;19.72;30.83;100637.41;4977789;28;20040;-86
2023/04/15 09:57:40;;;;;;;1.48;0.60;;;;;;;19.98;32.07;100642.19;4993467;28;20143;-86
2023/04/15 10:00:07;;;;;;;3.95;0.68;;;;;;;20.10;30.86;100642.91;4994217;28;20030;-86
2023/04/15 10:02:32;;;;;;;0.43;0.32;;;;;;;20.04;30.43;100637.19;4993404;28;20026;-86
2023/04/15 10:04:58;;;;;;;1.05;0.65;;;;;;;20.15;31.21;100625.75;4994048;28;20025;-86
2023/04/15 10:07:24;;;;;;;1.45;0.57;;;;;;;20.52;29.59;100633.00;4993642;28;20033;-86
2023/04/15 10:09:50;;;;;;;5.72;0.82;;;;;;;20.54;29.18;100631.06;4993474;28;20033;-86
2023/04/15 10:12:18;;;;;;;1.95;0.80;;;;;;;20.33;30.13;100631.16;4993391;28;20030;-86
2023/04/15 10:14:44;;;;;;;0.70;0.52;;;;;;;20.23;31.02;100625.91;4993462;28;20030;-86
2023/04/15 10:17:12;;;;;;;0.50;0.50;;;;;;;20.14;29.16;100624.09;4993380;28;20037;-86
2023/04/15 10:19:38;;;;;;;0.43;0.40;;;;;;;20.11;29.80;100606.00;4993714;28;20121;-87
2023/04/15 10:22:03;;;;;;;0.60;0.40;;;;;;;20.34;28.38;100617.06;4993599;28;20033;-86
2023/04/15 10:24:30;;;;;;;0.75;0.70;;;;;;;20.62;28.43;100623.31;4993506;28;20414;-86
2023/04/15 10:26:56;;;;;;;0.30;0.30;;;;;;;20.79;28.67;100608.63;4993090;28;20037;-86
2023/04/15 10:29:24;;;;;;;1.38;0.50;;;;;;;21.01;27.83;100617.97;4993041;28;20058;-87
2023/04/15 10:31:50;;;;;;;0.50;0.40;;;;;;;21.16;27.97;100624.47;4993448;28;20053;-86
2023/04/15 10:34:15;;;;;;;1.80;0.50;;;;;;;21.07;27.86;100610.34;4993396;28;20057;-86
2023/04/15 10:36:40;;;;;;;0.82;0.30;;;;;;;21.10;27.55;100630.28;4993404;28;20029;-86
2023/04/15 10:39:37;;;;;;;1.35;0.57;;;;;;;21.09;28.72;100623.38;5010040;28;20022;-87
2023/04/15 10:42:11;;;;;;;1.50;0.60;;;;;;;21.20;28.47;100620.56;5009274;28;20034;-86
2023/04/15 10:44:57;;;;;;;0.95;0.60;;;;;;;21.05;28.80;100617.56;4977186;28;20019;-87
2023/04/15 10:47:23;;;;;;;1.58;0.45;;;;;;;21.05;26.90;100624.63;4995236;28;20121;-86
2023/04/15 10:49:50;;;;;;;0.40;0.40;;;;;;;20.88;28.06;100611.22;4992920;28;20030;-86
2023/04/15 10:52:17;;;;;;;0.40;0.40;;;;;;;20.77;28.54;100621.91;4993223;28;20026;-86
2023/04/15 10:54:42;;;;;;;0.47;0.40;;;;;;;20.66;28.19;100619.44;4977165;28;20490;-86
2023/04/15 10:57:13;;;;;;;0.52;0.32;;;;;;;20.60;28.24;100625.25;4992732;28;20037;-86
2023/04/15 10:59:59;;;;;;;0.75;0.55;;;;;;;20.52;28.59;100633.00;4993935;28;20129;-86
2023/04/15 11:02:58;;;;;;;0.47;0.38;;;;;;;20.34;28.90;100635.44;4999762;28;20061;-86
2023/04/15 11:05:52;;;;;;;0.95;0.50;;;;;;;20.20;29.42;100649.81;4966964;28;20498;-87
2023/04/15 11:08:20;;;;;;;0.47;0.40;;;;;;;20.06;29.12;100637.09;4984215;28;20037;-87
2023/04/15 11:10:45;;;;;;;0.90;0.55;;;;;;;20.04;29.98;100645.09;4992703;28;20040;-86
2023/04/15 11:13:10;;;;;;;2.45;0.40;;;;;;;20.06;31.21;100644.97;5010718;28;20100;-86
2023/04/15 11:15:45;;;;;;;0.60;0.30;;;;;;;19.86;31.28;100619.63;5013180;28;20033;-86
2023/04/15 11:18:18;;;;;;;0.93;0.47;;;;;;;20.03;31.71;100647.84;5013207;28;20030;-85
2023/04/15 11:21:09;;;;;;;;;;;;;;;20.02;31.61;100651.44;5014296;28;20071;-87
2023/04/15 11:23:35;;;;;;;1.80;0.50;;;;;;;19.88;31.41;100655.28;5009109;28;19913;-86
2023/04/15 11:26:04;;;;;;;0.40;0.40;;;;;;;19.69;31.52;100645.56;5012380;28;20026;-86